createdAt,value
2022-12-09T21:44:30.893Z,0.50
2022-12-09T21:46:57.552Z,0.80
2022-12-09T21:49:24.206Z,1.20
2022-12-09T21:51:50.899Z,1.60
2022-12-09T21:54:17.579Z,1.70
2022-12-09T21:56:44.727Z,1.80
2022-12-09T21:59:11.791Z,2.00
2022-12-09T22:01:39.944Z,2.10
2022-12-09T22:04:08.020Z,4.20
2022-12-09T22:06:35.192Z,2.30
2022-12-09T22:09:02.331Z,2.30
2022-12-09T22:11:32.160Z,2.40
2022-12-09T22:13:59.892Z,2.50
2022-12-09T22:16:31.683Z,2.50
2022-12-09T22:18:59.170Z,2.60
2022-12-09T22:21:27.751Z,2.60
2022-12-09T22:23:55.422Z,2.60
2022-12-09T22:26:22.431Z,2.60
2022-12-09T22:28:49.170Z,2.60
2022-12-09T22:31:21.304Z,2.60
2022-12-09T22:33:48.475Z,2.70
2022-12-09T22:36:15.656Z,2.70
2022-12-09T22:38:43.132Z,2.70
2022-12-09T22:41:11.600Z,2.70
2022-12-09T22:43:38.668Z,2.70
2022-12-09T22:46:09.868Z,2.70
2022-12-09T22:48:36.704Z,2.70
2022-12-09T22:53:30.344Z,2.70
2022-12-09T22:55:57.243Z,2.80
2022-12-09T22:58:23.878Z,2.80
2022-12-09T23:00:50.609Z,2.80
2022-12-09T23:03:18.154Z,2.80
2022-12-09T23:10:39.782Z,2.70
2022-12-09T23:13:06.440Z,2.70
2022-12-09T23:18:00.165Z,2.70
2022-12-09T23:25:20.804Z,2.70
2022-12-09T23:27:47.392Z,2.70
2022-12-09T23:32:41.238Z,2.70
2022-12-09T23:35:08.121Z,2.70
2022-12-09T23:37:34.784Z,2.80
2022-12-09T23:40:01.441Z,2.80
2022-12-09T23:42:28.029Z,2.80
2022-12-09T23:49:48.823Z,2.70
2022-12-09T23:52:15.515Z,2.70
2022-12-09T23:59:36.195Z,2.80
